Time;durP1;ratioP1;P1;durP2;ratioP2;P2;SDS_P1;SDS_P2;PMS_P1;PMS_P2;Temp;Humidity;BMP_temperature;BMP_pressure;BME280_temperature;BME280_humidity;BME280_pressure;Samples;Min_cycle;Max_cycle;Signal;HPM_P1;HPM_P2
2022/08/24 00:02:10;;;;;;;9.80;4.50;;;;;;;;;;5032919;28;20076;-71
2022/08/24 00:05:16;;;;;;;7.35;4.90;;;;;;;;;;5034153;28;20042;-71
2022/08/24 00:08:20;;;;;;;9.10;4.32;;;;;;;;;;5033994;28;20037;-71
2022/08/24 00:11:25;;;;;;;8.00;4.63;;;;;;;;;;5033869;28;20033;-71
2022/08/24 00:14:30;;;;;;;9.07;4.47;;;;;;;;;;5033818;28;20046;-72
2022/08/24 00:17:34;;;;;;;6.43;4.07;;;;;;;;;;5033946;28;20477;-72
2022/08/24 00:20:39;;;;;;;9.05;4.25;;;;;;;;;;5032702;28;20030;-71
2022/08/24 00:23:48;;;;;;;9.40;4.38;;;;;;;;;;5033720;28;20037;-71
2022/08/24 00:26:53;;;;;;;8.32;4.13;;;;;;;;;;5032589;28;20042;-71
2022/08/24 00:29:57;;;;;;;11.73;3.97;;;;;;;;;;5033634;28;20037;-71
2022/08/24 00:33:01;;;;;;;7.40;3.53;;;;;;;;;;5032610;28;20057;-71
2022/08/24 00:36:07;;;;;;;9.48;3.88;;;;;;;;;;5021373;28;20493;-71
2022/08/24 00:39:11;;;;;;;10.52;4.03;;;;;;;;;;5032552;28;20033;-71
2022/08/24 00:42:16;;;;;;;5.22;3.65;;;;;;;;;;5033113;28;20052;-71
2022/08/24 00:45:20;;;;;;;5.20;3.95;;;;;;;;;;5033446;28;20041;-71
2022/08/24 00:48:27;;;;;;;9.10;4.65;;;;;;;;;;5033116;28;20378;-71
2022/08/24 00:51:58;;;;;;;9.90;4.88;;;;;;;;;;5032446;28;20046;-71
2022/08/24 00:55:06;;;;;;;5.60;3.47;;;;;;;;;;5033067;28;20053;-71
2022/08/24 00:58:14;;;;;;;6.93;3.45;;;;;;;;;;5033275;28;20045;-71
2022/08/24 01:01:18;;;;;;;6.10;3.53;;;;;;;;;;5031928;28;20465;-71
2022/08/24 01:04:27;;;;;;;7.80;4.00;;;;;;;;;;5032166;28;20045;-71
2022/08/24 01:07:33;;;;;;;6.10;3.80;;;;;;;;;;5032936;28;20482;-71
2022/08/24 01:10:39;;;;;;;10.40;4.30;;;;;;;;;;5032988;28;20045;-71
2022/08/24 01:13:45;;;;;;;10.15;4.22;;;;;;;;;;5031884;28;20044;-71
2022/08/24 01:20:13;;;;;;;6.95;3.58;;;;;;;;;;5032042;28;20037;-71
2022/08/24 01:23:23;;;;;;;7.30;3.53;;;;;;;;;;5031800;28;20046;-71
2022/08/24 01:26:31;;;;;;;9.02;4.32;;;;;;;;;;5032235;28;20374;-71
2022/08/24 01:29:37;;;;;;;5.47;4.03;;;;;;;;;;5032572;28;20042;-71
2022/08/24 01:32:42;;;;;;;13.05;4.53;;;;;;;;;;5031822;28;20041;-72
2022/08/24 01:35:45;;;;;;;6.90;4.40;;;;;;;;;;5032250;28;20500;-72
2022/08/24 01:38:50;;;;;;;6.13;4.55;;;;;;;;;;5030899;28;20394;-71
2022/08/24 01:41:54;;;;;;;13.65;4.80;;;;;;;;;;5031315;28;20041;-71
2022/08/24 01:44:59;;;;;;;11.80;4.47;;;;;;;;;;5032427;28;20043;-71
2022/08/24 01:48:03;;;;;;;9.95;4.93;;;;;;;;;;5031075;28;20049;-71
2022/08/24 01:51:07;;;;;;;8.80;4.25;;;;;;;;;;5031305;28;20041;-71
2022/08/24 01:54:12;;;;;;;8.77;4.65;;;;;;;;;;5031072;28;20394;-71
2022/08/24 01:57:17;;;;;;;10.48;4.95;;;;;;;;;;5030895;28;20053;-71
2022/08/24 02:00:22;;;;;;;10.55;4.72;;;;;;;;;;5031141;28;20052;-71
2022/08/24 02:03:29;;;;;;;10.95;4.85;;;;;;;;;;5030593;28;20044;-71
2022/08/24 02:06:34;;;;;;;8.68;4.75;;;;;;;;;;5008457;28;20052;-71
2022/08/24 02:09:39;;;;;;;8.77;4.80;;;;;;;;;;5031808;28;20042;-71
2022/08/24 02:12:45;;;;;;;12.43;5.55;;;;;;;;;;5030402;28;20042;-71
2022/08/24 02:15:50;;;;;;;7.60;5.25;;;;;;;;;;5030945;28;20056;-71
2022/08/24 02:18:55;;;;;;;9.32;4.68;;;;;;;;;;5030831;28;20041;-71
2022/08/24 02:21:59;;;;;;;8.88;5.13;;;;;;;;;;5030713;28;20041;-71
2022/08/24 02:25:04;;;;;;;9.70;5.75;;;;;;;;;;5030506;28;20049;-71
2022/08/24 02:28:09;;;;;;;7.50;5.05;;;;;;;;;;5031335;28;20037;-71
2022/08/24 02:31:13;;;;;;;10.30;5.80;;;;;;;;;;5019026;28;20045;-71
2022/08/24 02:34:18;;;;;;;11.40;5.22;;;;;;;;;;5030361;28;20228;-71
2022/08/24 02:37:23;;;;;;;8.25;5.22;;;;;;;;;;5019302;28;20049;-71
2022/08/24 02:40:28;;;;;;;10.65;5.72;;;;;;;;;;5030533;28;20034;-71
2022/08/24 02:43:33;;;;;;;11.05;5.90;;;;;;;;;;5030622;28;20040;-71
2022/08/24 02:46:38;;;;;;;12.30;5.40;;;;;;;;;;5030513;28;20108;-72
2022/08/24 02:49:45;;;;;;;11.20;5.85;;;;;;;;;;5029621;28;20397;-71
2022/08/24 02:52:50;;;;;;;11.40;6.45;;;;;;;;;;5030292;28;20048;-71
2022/08/24 02:55:55;;;;;;;18.15;6.43;;;;;;;;;;5030084;28;20056;-71
2022/08/24 02:59:00;;;;;;;8.52;5.68;;;;;;;;;;5031140;28;20036;-71
2022/08/24 03:02:06;;;;;;;10.20;5.28;;;;;;;;;;5029768;28;20045;-71
2022/08/24 03:05:11;;;;;;;12.35;5.70;;;;;;;;;;5030028;28;20500;-71
2022/08/24 03:08:16;;;;;;;10.45;6.15;;;;;;;;;;5030236;28;20045;-71
2022/08/24 03:11:21;;;;;;;10.13;5.95;;;;;;;;;;5029745;28;20044;-71
2022/08/24 03:14:25;;;;;;;14.18;5.97;;;;;;;;;;5007414;28;20049;-71
2022/08/24 03:17:32;;;;;;;10.13;6.13;;;;;;;;;;5029991;28;20056;-71
2022/08/24 03:20:37;;;;;;;8.77;5.78;;;;;;;;;;5030237;28;20037;-71
2022/08/24 03:23:42;;;;;;;10.23;5.57;;;;;;;;;;5030554;28;20481;-71
2022/08/24 03:26:49;;;;;;;11.13;5.60;;;;;;;;;;5018902;28;20053;-71
2022/08/24 03:29:53;;;;;;;12.10;5.63;;;;;;;;;;5030638;28;20052;-71
2022/08/24 03:32:57;;;;;;;10.75;5.75;;;;;;;;;;5029961;28;20045;-71
2022/08/24 03:36:03;;;;;;;9.07;5.72;;;;;;;;;;5029847;28;20048;-71
2022/08/24 03:39:08;;;;;;;13.57;5.70;;;;;;;;;;5029774;28;20041;-72
2022/08/24 03:42:14;;;;;;;15.55;5.93;;;;;;;;;;5029673;28;20044;-71
2022/08/24 03:45:19;;;;;;;14.88;5.88;;;;;;;;;;5029732;28;20052;-71
2022/08/24 03:48:24;;;;;;;11.55;5.25;;;;;;;;;;5029742;28;20564;-71
2022/08/24 03:51:29;;;;;;;9.98;5.47;;;;;;;;;;5029448;28;20617;-71
2022/08/24 03:54:34;;;;;;;9.95;5.40;;;;;;;;;;5029682;28;20049;-71
2022/08/24 03:57:39;;;;;;;8.75;5.60;;;;;;;;;;5018465;28;20459;-71
2022/08/24 04:00:44;;;;;;;10.75;5.55;;;;;;;;;;5031519;28;20408;-71
2022/08/24 04:03:52;;;;;;;15.38;5.68;;;;;;;;;;5022363;28;20389;-71
2022/08/24 04:06:59;;;;;;;9.88;6.07;;;;;;;;;;5021792;28;20052;-71
2022/08/24 04:10:05;;;;;;;8.02;5.38;;;;;;;;;;5021715;28;20026;-71
2022/08/24 04:13:10;;;;;;;10.40;5.65;;;;;;;;;;5033377;28;20033;-71
2022/08/24 04:16:16;;;;;;;7.72;4.90;;;;;;;;;;5033233;28;20223;-71
2022/08/24 04:19:21;;;;;;;9.23;4.13;;;;;;;;;;5033155;28;20041;-71
2022/08/24 04:22:27;;;;;;;6.57;4.10;;;;;;;;;;5032839;28;20025;-71
2022/08/24 04:25:31;;;;;;;6.32;4.15;;;;;;;;;;5032616;28;20494;-71
2022/08/24 04:28:36;;;;;;;6.35;3.70;;;;;;;;;;5033024;28;20045;-71
2022/08/24 04:31:43;;;;;;;6.25;3.88;;;;;;;;;;5032670;28;20038;-71
2022/08/24 04:34:49;;;;;;;8.88;3.90;;;;;;;;;;5032564;28;20397;-71
2022/08/24 04:37:53;;;;;;;7.63;3.67;;;;;;;;;;5034219;28;20367;-71
2022/08/24 04:40:58;;;;;;;7.97;3.92;;;;;;;;;;5032559;28;20046;-71
2022/08/24 04:44:03;;;;;;;5.75;3.78;;;;;;;;;;5032512;28;20477;-71
2022/08/24 04:47:07;;;;;;;6.70;3.97;;;;;;;;;;5032419;28;20041;-71
2022/08/24 04:50:12;;;;;;;8.48;3.50;;;;;;;;;;5033343;28;20041;-71
2022/08/24 04:53:17;;;;;;;5.97;4.15;;;;;;;;;;5033088;28;20037;-71
2022/08/24 04:56:26;;;;;;;8.60;3.65;;;;;;;;;;5032430;28;20045;-71
2022/08/24 04:59:34;;;;;;;8.93;3.60;;;;;;;;;;5032280;28;20045;-71
2022/08/24 05:02:39;;;;;;;8.35;3.33;;;;;;;;;;5032434;28;20045;-71
2022/08/24 05:05:45;;;;;;;6.85;4.20;;;;;;;;;;5032319;28;20045;-71
2022/08/24 05:08:51;;;;;;;9.43;3.85;;;;;;;;;;5032220;28;20037;-71
2022/08/24 05:11:57;;;;;;;6.15;3.10;;;;;;;;;;5031889;28;20445;-71
2022/08/24 05:15:04;;;;;;;5.72;3.67;;;;;;;;;;5032014;28;20049;-71
2022/08/24 05:18:16;;;;;;;9.57;3.60;;;;;;;;;;5031857;28;20033;-71
2022/08/24 05:21:22;;;;;;;7.95;3.50;;;;;;;;;;5031950;28;20300;-71
2022/08/24 05:24:28;;;;;;;6.68;3.55;;;;;;;;;;5020678;28;20045;-71
2022/08/24 05:27:34;;;;;;;7.60;3.40;;;;;;;;;;5031608;28;20045;-71
2022/08/24 05:30:39;;;;;;;14.52;4.47;;;;;;;;;;5020320;28;20037;-71
2022/08/24 05:33:44;;;;;;;9.82;5.40;;;;;;;;;;5031792;28;20101;-71
2022/08/24 05:36:49;;;;;;;7.00;3.53;;;;;;;;;;5031552;28;20050;-71
2022/08/24 05:40:15;;;;;;;4.13;3.40;;;;;;;;;;5035687;28;20037;-71
2022/08/24 05:43:21;;;;;;;12.88;3.67;;;;;;;;;;5031481;28;20045;-71
2022/08/24 05:46:26;;;;;;;12.18;3.97;;;;;;;;;;5031856;28;20049;-71
2022/08/24 05:49:31;;;;;;;5.78;3.40;;;;;;;;;;5031410;28;20044;-71
2022/08/24 05:52:36;;;;;;;8.75;3.25;;;;;;;;;;5031051;28;20485;-71
2022/08/24 05:55:41;;;;;;;5.70;3.05;;;;;;;;;;5030810;28;20049;-71
2022/08/24 05:58:45;;;;;;;7.93;3.28;;;;;;;;;;5030901;28;20030;-71
2022/08/24 06:01:50;;;;;;;8.45;4.20;;;;;;;;;;5031014;28;20037;-71
2022/08/24 06:04:55;;;;;;;6.43;3.08;;;;;;;;;;5030954;28;20169;-71
2022/08/24 06:08:00;;;;;;;9.40;3.42;;;;;;;;;;5031538;28;20029;-71
2022/08/24 06:11:05;;;;;;;6.43;3.30;;;;;;;;;;5030742;28;20037;-71
2022/08/24 06:14:11;;;;;;;7.43;3.28;;;;;;;;;;5030647;28;20038;-71
2022/08/24 06:17:25;;;;;;;12.23;3.22;;;;;;;;;;5020894;28;20046;-71
2022/08/24 06:20:30;;;;;;;8.82;3.65;;;;;;;;;;5030351;28;20040;-71
2022/08/24 06:23:35;;;;;;;9.93;3.75;;;;;;;;;;5018426;28;20477;-71
2022/08/24 06:30:10;;;;;;;4.65;2.40;;;;;;;;;;5030457;28;20033;-71
2022/08/24 06:33:38;;;;;;;5.05;2.38;;;;;;;;;;5036137;28;20041;-71
2022/08/24 06:36:43;;;;;;;5.95;1.63;;;;;;;;;;5030367;28;20049;-70
2022/08/24 06:39:47;;;;;;;9.43;2.03;;;;;;;;;;5030068;28;20033;-70
2022/08/24 06:42:52;;;;;;;4.43;1.60;;;;;;;;;;5030161;28;20041;-70
2022/08/24 06:46:13;;;;;;;4.88;1.75;;;;;;;;;;5030337;28;20045;-69
2022/08/24 06:49:22;;;;;;;3.78;1.60;;;;;;;;;;5030358;28;20041;-69
2022/08/24 06:52:26;;;;;;;6.97;1.63;;;;;;;;;;5030174;28;20041;-71
2022/08/24 06:55:31;;;;;;;7.28;1.92;;;;;;;;;;5030091;28;20390;-71
2022/08/24 06:58:36;;;;;;;2.00;1.50;;;;;;;;;;5018864;28;20033;-71
2022/08/24 07:01:43;;;;;;;3.78;1.23;;;;;;;;;;5029730;28;20037;-70
2022/08/24 07:04:48;;;;;;;3.38;1.50;;;;;;;;;;5018953;28;20034;-71
2022/08/24 07:08:11;;;;;;;7.05;1.77;;;;;;;;;;5031305;28;20037;-69
2022/08/24 07:11:16;;;;;;;4.13;2.03;;;;;;;;;;5029898;28;20033;-69
2022/08/24 07:14:21;;;;;;;2.97;1.60;;;;;;;;;;5029903;28;20477;-71
2022/08/24 07:17:26;;;;;;;6.38;1.77;;;;;;;;;;5030210;28;20105;-71
2022/08/24 07:20:31;;;;;;;3.08;1.60;;;;;;;;;;5029934;28;20442;-70
2022/08/24 07:23:47;;;;;;;5.32;1.60;;;;;;;;;;5029815;28;20370;-70
2022/08/24 07:26:52;;;;;;;3.42;1.45;;;;;;;;;;5030130;28;20485;-70
2022/08/24 07:29:57;;;;;;;7.82;1.90;;;;;;;;;;5030828;28;20033;-70
2022/08/24 07:33:01;;;;;;;6.25;1.88;;;;;;;;;;5029781;28;20050;-71
2022/08/24 07:36:06;;;;;;;5.80;1.90;;;;;;;;;;5031440;28;20058;-71
2022/08/24 07:39:11;;;;;;;4.80;2.03;;;;;;;;;;5033547;28;20041;-71
2022/08/24 07:42:16;;;;;;;2.10;1.70;;;;;;;;;;5033346;28;20371;-71
2022/08/24 07:45:22;;;;;;;2.88;1.95;;;;;;;;;;5033734;28;20041;-71
2022/08/24 07:48:30;;;;;;;8.40;2.20;;;;;;;;;;5033338;28;20493;-71
2022/08/24 07:51:35;;;;;;;3.78;1.95;;;;;;;;;;5033463;28;20037;-71
2022/08/24 07:54:39;;;;;;;5.40;2.20;;;;;;;;;;5033276;28;20033;-71
2022/08/24 07:57:45;;;;;;;6.22;2.42;;;;;;;;;;5033604;28;20045;-71
2022/08/24 08:00:49;;;;;;;6.13;2.38;;;;;;;;;;5033466;28;20038;-70
2022/08/24 08:03:54;;;;;;;4.22;2.25;;;;;;;;;;5033479;28;20041;-71
2022/08/24 08:07:02;;;;;;;5.15;2.38;;;;;;;;;;5021720;28;20037;-71
2022/08/24 08:10:10;;;;;;;;;;;;;;;;;;5033820;28;20037;-71
2022/08/24 08:13:14;;;;;;;5.40;2.40;;;;;;;;;;5032990;28;19936;-72
2022/08/24 08:16:20;;;;;;;2.53;2.20;;;;;;;;;;5032828;28;20053;-69
2022/08/24 08:19:24;;;;;;;4.13;2.67;;;;;;;;;;5032782;28;20045;-71
2022/08/24 08:26:21;;;;;;;3.78;2.50;;;;;;;;;;5006904;28;20038;-70
2022/08/24 08:29:52;;;;;;;5.05;2.30;;;;;;;;;;5033426;28;20045;-70
2022/08/24 08:32:56;;;;;;;3.95;2.50;;;;;;;;;;5032356;28;20378;-71
2022/08/24 08:36:07;;;;;;;5.28;2.60;;;;;;;;;;5021131;28;20057;-71
2022/08/24 08:39:16;;;;;;;4.13;2.78;;;;;;;;;;5021655;28;20049;-70
2022/08/24 08:42:30;;;;;;;4.75;2.20;;;;;;;;;;5032074;28;20038;-71
2022/08/24 08:45:45;;;;;;;3.28;2.38;;;;;;;;;;5032104;28;20041;-75
2022/08/24 08:49:43;;;;;;;2.25;2.05;;;;;;;;;;5033284;28;20037;-72
2022/08/24 08:53:07;;;;;;;4.25;2.47;;;;;;;;;;5031885;28;20041;-72
2022/08/24 08:56:19;;;;;;;4.35;2.28;;;;;;;;;;5031929;28;20377;-71
2022/08/24 08:59:33;;;;;;;5.05;2.58;;;;;;;;;;5032816;28;20041;-70
2022/08/24 09:02:52;;;;;;;2.83;2.20;;;;;;;;;;5031721;28;20049;-70
2022/08/24 09:06:05;;;;;;;3.53;2.00;;;;;;;;;;5031886;28;20366;-69
2022/08/24 09:09:28;;;;;;;7.07;2.70;;;;;;;;;;5032459;28;20045;-69
2022/08/24 09:12:45;;;;;;;3.35;2.72;;;;;;;;;;5031555;28;20041;-71
2022/08/24 09:15:53;;;;;;;5.85;3.00;;;;;;;;;;5031336;28;20045;-71
2022/08/24 09:19:09;;;;;;;6.10;2.70;;;;;;;;;;5032458;28;20037;-72
2022/08/24 09:22:18;;;;;;;3.67;2.97;;;;;;;;;;5032334;28;20037;-70
2022/08/24 09:25:36;;;;;;;5.10;2.92;;;;;;;;;;5030922;28;20046;-70
2022/08/24 09:28:50;;;;;;;4.53;3.10;;;;;;;;;;5031103;28;20037;-71
2022/08/24 09:32:00;;;;;;;7.78;3.22;;;;;;;;;;5032179;28;20041;-71
2022/08/24 09:35:05;;;;;;;4.87;3.50;;;;;;;;;;5032045;28;20045;-70
2022/08/24 09:38:13;;;;;;;3.25;2.90;;;;;;;;;;5031405;28;20049;-71
2022/08/24 09:41:23;;;;;;;4.15;3.08;;;;;;;;;;5032144;28;20041;-71
2022/08/24 09:44:34;;;;;;;5.25;3.80;;;;;;;;;;5032299;28;20429;-71
2022/08/24 09:47:38;;;;;;;;;;;;;;;;;;5032273;28;20041;-71
2022/08/24 09:50:45;;;;;;;5.28;3.90;;;;;;;;;;5031946;28;19916;-71
2022/08/24 09:54:09;;;;;;;8.45;3.70;;;;;;;;;;5031730;28;20033;-71
2022/08/24 09:57:19;;;;;;;6.35;4.28;;;;;;;;;;5032063;28;20041;-71
2022/08/24 10:00:23;;;;;;;;;;;;;;;;;;5031233;28;20037;-71
2022/08/24 10:03:40;;;;;;;4.82;3.60;;;;;;;;;;5031526;28;20348;-71
2022/08/24 10:06:51;;;;;;;4.88;3.45;;;;;;;;;;5030604;28;20037;-71
2022/08/24 10:10:01;;;;;;;3.90;3.40;;;;;;;;;;5031558;28;20041;-71
2022/08/24 10:13:13;;;;;;;4.97;3.38;;;;;;;;;;5031906;28;20362;-72
2022/08/24 10:16:21;;;;;;;5.15;3.65;;;;;;;;;;5031298;28;20050;-71
2022/08/24 10:19:44;;;;;;;6.28;3.15;;;;;;;;;;5030386;28;20045;-72
2022/08/24 10:23:07;;;;;;;6.18;3.53;;;;;;;;;;5031280;28;20466;-71
2022/08/24 10:26:17;;;;;;;8.55;3.58;;;;;;;;;;5030708;28;20061;-69
2022/08/24 10:29:41;;;;;;;4.38;3.38;;;;;;;;;;5031115;28;20578;-73
2022/08/24 10:33:03;;;;;;;5.15;3.70;;;;;;;;;;5031006;28;20382;-74
2022/08/24 10:36:08;;;;;;;4.63;3.53;;;;;;;;;;5030245;28;20477;-70
2022/08/24 10:46:37;;;;;;;5.50;3.42;;;;;;;;;;5029854;28;20037;-70
2022/08/24 10:49:56;;;;;;;5.70;3.40;;;;;;;;;;5030903;28;20037;-71
2022/08/24 10:53:00;;;;;;;5.68;3.30;;;;;;;;;;5031080;28;20041;-70
2022/08/24 10:56:10;;;;;;;5.75;4.07;;;;;;;;;;5030628;28;20053;-71
2022/08/24 10:59:44;;;;;;;4.70;3.42;;;;;;;;;;5030890;28;20038;-71
2022/08/24 11:02:49;;;;;;;6.43;3.05;;;;;;;;;;5035354;28;20041;-71
2022/08/24 11:05:54;;;;;;;5.50;3.47;;;;;;;;;;5030764;28;20374;-71
2022/08/24 11:09:19;;;;;;;6.97;3.72;;;;;;;;;;5030834;28;20454;-71
2022/08/24 11:12:35;;;;;;;5.72;3.42;;;;;;;;;;5037248;28;20383;-71
2022/08/24 11:15:46;;;;;;;4.68;3.63;;;;;;;;;;5037085;28;20037;-71
2022/08/24 11:18:50;;;;;;;;;;;;;;;;;;5037923;28;20033;-71
2022/08/24 11:21:55;;;;;;;6.90;4.25;;;;;;;;;;5037375;28;19916;-72
2022/08/24 11:25:01;;;;;;;6.32;3.97;;;;;;;;;;5036243;28;20045;-71
2022/08/24 11:28:10;;;;;;;5.50;3.60;;;;;;;;;;5037405;28;20509;-71
2022/08/24 11:31:21;;;;;;;6.72;3.55;;;;;;;;;;5036536;28;20041;-71
2022/08/24 11:34:34;;;;;;;4.20;3.40;;;;;;;;;;5040409;28;20033;-72
2022/08/24 11:37:39;;;;;;;4.93;3.60;;;;;;;;;;5037015;28;20041;-71
2022/08/24 11:40:55;;;;;;;4.18;3.40;;;;;;;;;;5036959;28;20037;-72
2022/08/24 11:44:09;;;;;;;5.05;3.67;;;;;;;;;;5036886;28;20275;-72
2022/08/24 11:47:25;;;;;;;6.88;3.45;;;;;;;;;;5036185;28;20046;-73
2022/08/24 11:50:32;;;;;;;6.00;3.70;;;;;;;;;;5036815;28;20033;-72
2022/08/24 11:53:55;;;;;;;4.00;3.28;;;;;;;;;;5037224;28;20053;-72
2022/08/24 11:57:05;;;;;;;4.05;3.00;;;;;;;;;;5036867;28;20045;-71
2022/08/24 12:00:13;;;;;;;6.33;2.97;;;;;;;;;;5037101;28;20033;-72
2022/08/24 12:03:41;;;;;;;4.97;3.05;;;;;;;;;;5036255;28;20041;-71
2022/08/24 12:06:54;;;;;;;4.25;3.40;;;;;;;;;;5037041;28;20045;-72
2022/08/24 12:10:19;;;;;;;5.80;3.42;;;;;;;;;;5036801;28;20033;-73
2022/08/24 12:13:30;;;;;;;5.78;3.50;;;;;;;;;;5016877;28;20462;-71
2022/08/24 12:16:45;;;;;;;4.22;3.05;;;;;;;;;;5036477;28;20049;-71
2022/08/24 12:19:52;;;;;;;5.15;3.35;;;;;;;;;;5036697;28;20513;-71
2022/08/24 12:22:59;;;;;;;3.67;3.15;;;;;;;;;;5021932;28;20041;-72
2022/08/24 12:26:24;;;;;;;4.15;3.10;;;;;;;;;;5033391;28;20046;-72
2022/08/24 12:29:41;;;;;;;4.45;3.08;;;;;;;;;;5033383;28;20041;-72
2022/08/24 12:32:49;;;;;;;6.15;3.50;;;;;;;;;;5032540;28;20037;-72
2022/08/24 12:35:55;;;;;;;6.63;3.25;;;;;;;;;;5032690;28;20034;-71
2022/08/24 12:39:12;;;;;;;4.68;3.15;;;;;;;;;;5033753;28;20045;-72
2022/08/24 12:42:31;;;;;;;4.40;3.05;;;;;;;;;;5032983;28;20033;-71
2022/08/24 12:45:36;;;;;;;4.67;3.13;;;;;;;;;;5033185;28;20497;-72
2022/08/24 12:48:53;;;;;;;7.97;2.80;;;;;;;;;;5033135;28;20037;-71
2022/08/24 12:51:57;;;;;;;5.38;3.17;;;;;;;;;;5033111;28;20037;-70
2022/08/24 12:55:18;;;;;;;11.95;3.17;;;;;;;;;;5033205;28;20469;-69
2022/08/24 12:58:38;;;;;;;9.15;3.22;;;;;;;;;;5032353;28;20053;-70
2022/08/24 13:01:45;;;;;;;9.48;2.83;;;;;;;;;;5032892;28;20034;-70
2022/08/24 13:04:49;;;;;;;7.53;2.97;;;;;;;;;;5020780;28;20481;-72
2022/08/24 13:08:08;;;;;;;9.02;2.78;;;;;;;;;;5032991;28;20029;-71
2022/08/24 13:11:14;;;;;;;6.13;2.92;;;;;;;;;;5032600;28;20485;-71
2022/08/24 13:14:21;;;;;;;6.22;2.70;;;;;;;;;;5032151;28;20045;-71
2022/08/24 13:17:39;;;;;;;7.28;3.30;;;;;;;;;;5032891;28;20390;-71
2022/08/24 13:20:44;;;;;;;6.82;3.08;;;;;;;;;;5032711;28;20029;-70
2022/08/24 13:24:08;;;;;;;6.07;2.90;;;;;;;;;;5031650;28;20042;-70
2022/08/24 13:27:12;;;;;;;4.57;2.95;;;;;;;;;;5032621;28;20045;-69
2022/08/24 13:30:16;;;;;;;4.03;2.70;;;;;;;;;;5032501;28;20041;-70
2022/08/24 13:33:30;;;;;;;4.75;2.90;;;;;;;;;;5032114;28;20046;-71
2022/08/24 13:36:46;;;;;;;4.25;2.90;;;;;;;;;;5032310;28;20389;-72
2022/08/24 13:40:09;;;;;;;5.30;3.10;;;;;;;;;;5032478;28;20037;-70
2022/08/24 13:43:18;;;;;;;5.05;3.03;;;;;;;;;;5032529;28;20383;-70
2022/08/24 13:46:31;;;;;;;3.78;2.75;;;;;;;;;;5031207;28;20037;-71
2022/08/24 13:49:45;;;;;;;5.10;3.35;;;;;;;;;;5031732;28;20037;-72
2022/08/24 13:53:16;;;;;;;5.75;3.20;;;;;;;;;;5031197;28;20477;-71
2022/08/24 13:56:26;;;;;;;3.45;2.70;;;;;;;;;;5024772;28;20049;-71
2022/08/24 13:59:33;;;;;;;7.28;2.55;;;;;;;;;;5030918;28;20505;-71
2022/08/24 14:02:59;;;;;;;4.78;2.80;;;;;;;;;;5031910;28;20273;-71
2022/08/24 14:06:18;;;;;;;5.53;3.20;;;;;;;;;;5031424;28;20371;-71
2022/08/24 14:09:41;;;;;;;5.50;2.45;;;;;;;;;;5031678;28;20041;-71
2022/08/24 14:12:54;;;;;;;4.95;2.80;;;;;;;;;;5031781;28;20041;-71
2022/08/24 14:19:50;;;;;;;3.60;3.15;;;;;;;;;;5031551;28;20046;-70
2022/08/24 14:22:57;;;;;;;4.75;3.20;;;;;;;;;;5031818;28;20037;-70
2022/08/24 14:26:20;;;;;;;6.22;2.50;;;;;;;;;;5031244;28;20045;-72
2022/08/24 14:29:26;;;;;;;5.13;3.17;;;;;;;;;;5031471;28;20045;-72
2022/08/24 14:32:30;;;;;;;4.22;2.88;;;;;;;;;;5031311;28;20520;-72
2022/08/24 14:35:38;;;;;;;5.13;2.83;;;;;;;;;;5030245;28;20033;-73
2022/08/24 14:39:15;;;;;;;3.70;3.20;;;;;;;;;;5031081;28;20489;-74
2022/08/24 14:42:39;;;;;;;7.40;3.08;;;;;;;;;;5013700;28;20033;-72
2022/08/24 14:45:55;;;;;;;5.47;2.95;;;;;;;;;;5029492;28;20038;-72
2022/08/24 14:49:06;;;;;;;6.13;2.97;;;;;;;;;;5031221;28;20041;-71
2022/08/24 14:52:23;;;;;;;3.88;3.00;;;;;;;;;;5030820;28;20037;-71
2022/08/24 14:55:46;;;;;;;4.65;3.15;;;;;;;;;;5030893;28;20041;-74
2022/08/24 14:58:59;;;;;;;6.22;2.72;;;;;;;;;;5031122;28;20046;-74
2022/08/24 15:02:22;;;;;;;7.13;2.90;;;;;;;;;;5029807;28;20037;-74
2022/08/24 15:05:29;;;;;;;4.75;3.30;;;;;;;;;;5030140;28;20042;-73
2022/08/24 15:08:41;;;;;;;3.75;2.88;;;;;;;;;;5030613;28;20034;-72
2022/08/24 15:11:47;;;;;;;3.10;2.67;;;;;;;;;;5030582;28;20481;-72
2022/08/24 15:14:54;;;;;;;6.82;2.90;;;;;;;;;;5030663;28;20033;-73
2022/08/24 15:18:16;;;;;;;5.00;3.20;;;;;;;;;;5030425;28;20049;-74
2022/08/24 15:21:20;;;;;;;8.27;3.25;;;;;;;;;;5030343;28;20037;-74
2022/08/24 15:24:34;;;;;;;10.10;3.35;;;;;;;;;;5030222;28;20555;-74
2022/08/24 15:27:54;;;;;;;6.45;2.78;;;;;;;;;;5030696;28;20060;-74
2022/08/24 15:31:00;;;;;;;5.50;2.90;;;;;;;;;;5030656;28;20033;-74
2022/08/24 15:34:05;;;;;;;4.50;3.33;;;;;;;;;;5030481;28;20481;-74
2022/08/24 15:37:09;;;;;;;6.82;3.67;;;;;;;;;;5030193;28;20394;-74
2022/08/24 15:40:22;;;;;;;10.75;4.43;;;;;;;;;;5029534;28;20037;-73
2022/08/24 15:43:27;;;;;;;7.88;4.63;;;;;;;;;;5029509;28;20068;-73
2022/08/24 15:46:39;;;;;;;7.75;4.20;;;;;;;;;;5030264;28;20034;-73
2022/08/24 15:49:49;;;;;;;7.72;4.18;;;;;;;;;;5029670;28;20037;-73
2022/08/24 15:53:01;;;;;;;7.57;3.60;;;;;;;;;;5030275;28;20045;-73
2022/08/24 15:56:21;;;;;;;6.43;4.53;;;;;;;;;;5029923;28;20049;-74
2022/08/24 15:59:25;;;;;;;7.68;4.00;;;;;;;;;;5033747;28;20042;-73
2022/08/24 16:02:30;;;;;;;6.55;3.58;;;;;;;;;;5033792;28;20037;-74
2022/08/24 16:05:37;;;;;;;6.53;3.90;;;;;;;;;;5033841;28;20041;-74
2022/08/24 16:09:00;;;;;;;9.60;4.28;;;;;;;;;;5032893;28;20157;-74
2022/08/24 16:12:15;;;;;;;10.57;4.78;;;;;;;;;;5033998;28;20037;-74
2022/08/24 16:15:19;;;;;;;9.13;4.28;;;;;;;;;;5033020;28;20397;-74
2022/08/24 16:18:47;;;;;;;10.40;4.60;;;;;;;;;;5020087;28;20041;-74
2022/08/24 16:21:57;;;;;;;9.13;5.05;;;;;;;;;;5033707;28;20044;-74
2022/08/24 16:25:20;;;;;;;7.57;4.05;;;;;;;;;;5032507;28;20489;-74
2022/08/24 16:28:24;;;;;;;5.65;3.85;;;;;;;;;;5033628;28;20045;-74
2022/08/24 16:31:43;;;;;;;12.93;4.47;;;;;;;;;;5033319;28;20045;-74
2022/08/24 16:34:49;;;;;;;8.13;4.10;;;;;;;;;;5032215;28;20100;-74
2022/08/24 16:37:54;;;;;;;11.07;5.30;;;;;;;;;;5033338;28;20050;-74
2022/08/24 16:41:03;;;;;;;12.32;4.20;;;;;;;;;;5032379;28;20045;-74
2022/08/24 16:44:09;;;;;;;7.78;4.32;;;;;;;;;;5033428;28;20071;-74
2022/08/24 16:47:13;;;;;;;9.00;4.07;;;;;;;;;;5032779;28;20426;-74
2022/08/24 16:50:19;;;;;;;9.02;4.07;;;;;;;;;;5021295;28;20418;-74
2022/08/24 16:53:23;;;;;;;8.40;3.67;;;;;;;;;;5033616;28;20041;-74
2022/08/24 16:56:28;;;;;;;5.47;3.50;;;;;;;;;;5032950;28;20386;-73
2022/08/24 16:59:33;;;;;;;4.97;3.60;;;;;;;;;;5032955;28;20033;-74
2022/08/24 17:02:38;;;;;;;8.02;3.67;;;;;;;;;;5032472;28;20034;-74
2022/08/24 17:05:42;;;;;;;7.00;3.85;;;;;;;;;;5033009;28;20045;-74
2022/08/24 17:08:47;;;;;;;8.13;4.40;;;;;;;;;;5031564;28;20041;-74
2022/08/24 17:11:51;;;;;;;8.95;3.95;;;;;;;;;;5031573;28;20379;-74
2022/08/24 17:14:57;;;;;;;4.85;3.63;;;;;;;;;;5032642;28;20037;-73
2022/08/24 17:18:06;;;;;;;9.57;3.60;;;;;;;;;;5032550;28;20569;-74
2022/08/24 17:21:10;;;;;;;6.40;4.50;;;;;;;;;;5031447;28;20026;-74
2022/08/24 17:24:17;;;;;;;10.27;4.03;;;;;;;;;;5032077;28;20485;-73
2022/08/24 17:27:26;;;;;;;8.40;3.83;;;;;;;;;;5032431;28;20476;-73
2022/08/24 17:30:31;;;;;;;7.28;3.97;;;;;;;;;;5031589;28;20041;-73
2022/08/24 17:33:36;;;;;;;8.13;4.10;;;;;;;;;;5032332;28;20045;-74
2022/08/24 17:36:43;;;;;;;9.48;3.53;;;;;;;;;;5032041;28;20053;-73
2022/08/24 17:39:54;;;;;;;6.80;4.20;;;;;;;;;;5032163;28;20038;-73
2022/08/24 17:42:58;;;;;;;7.35;3.95;;;;;;;;;;5032081;28;20041;-73
2022/08/24 17:46:03;;;;;;;6.95;3.70;;;;;;;;;;5032206;28;20041;-73
2022/08/24 17:49:07;;;;;;;6.95;4.22;;;;;;;;;;5032122;28;20038;-73
2022/08/24 17:52:13;;;;;;;7.75;3.90;;;;;;;;;;5032330;28;20042;-72
2022/08/24 17:55:18;;;;;;;5.20;4.22;;;;;;;;;;5032248;28;20045;-73
2022/08/24 17:58:22;;;;;;;11.18;5.03;;;;;;;;;;5031937;28;20045;-72
2022/08/24 18:01:27;;;;;;;6.78;3.75;;;;;;;;;;5031568;28;20041;-73
2022/08/24 18:04:32;;;;;;;5.70;4.13;;;;;;;;;;5032180;28;20029;-73
2022/08/24 18:07:37;;;;;;;10.65;3.83;;;;;;;;;;5031466;28;20037;-73
2022/08/24 18:10:41;;;;;;;14.48;4.82;;;;;;;;;;5031443;28;20035;-73
2022/08/24 18:13:45;;;;;;;8.43;4.07;;;;;;;;;;5019502;28;20041;-73
2022/08/24 18:16:50;;;;;;;6.40;4.10;;;;;;;;;;5030407;28;20049;-73
2022/08/24 18:19:54;;;;;;;10.85;4.88;;;;;;;;;;5031283;28;20038;-73
2022/08/24 18:22:58;;;;;;;14.90;4.22;;;;;;;;;;5031541;28;20048;-73
2022/08/24 18:26:03;;;;;;;8.75;4.53;;;;;;;;;;5031020;28;20057;-73
2022/08/24 18:29:13;;;;;;;8.98;4.18;;;;;;;;;;5031660;28;20034;-73
2022/08/24 18:32:17;;;;;;;8.60;3.97;;;;;;;;;;5031352;28;20037;-73
2022/08/24 18:35:21;;;;;;;5.85;4.38;;;;;;;;;;5031422;28;20394;-73
2022/08/24 18:38:26;;;;;;;8.23;4.35;;;;;;;;;;5031282;28;20045;-73
2022/08/24 18:41:34;;;;;;;8.20;4.38;;;;;;;;;;5031137;28;20037;-73
2022/08/24 18:44:39;;;;;;;13.50;4.60;;;;;;;;;;5031509;28;20053;-73
2022/08/24 18:47:43;;;;;;;8.23;4.25;;;;;;;;;;5030236;28;20104;-73
2022/08/24 18:50:49;;;;;;;8.90;4.07;;;;;;;;;;5018694;28;20037;-73
2022/08/24 18:53:57;;;;;;;7.20;4.75;;;;;;;;;;5031395;28;20038;-73
2022/08/24 18:57:02;;;;;;;8.57;4.35;;;;;;;;;;5031296;28;20049;-73
2022/08/24 19:00:08;;;;;;;9.93;4.20;;;;;;;;;;5030891;28;20042;-73
2022/08/24 19:03:15;;;;;;;14.90;4.97;;;;;;;;;;5030411;28;20041;-73
2022/08/24 19:06:20;;;;;;;14.63;4.57;;;;;;;;;;5031172;28;20064;-73
2022/08/24 19:09:24;;;;;;;9.25;3.83;;;;;;;;;;5030252;28;20052;-73
2022/08/24 19:12:30;;;;;;;9.45;5.05;;;;;;;;;;5030879;28;20041;-73
2022/08/24 19:15:35;;;;;;;10.82;4.40;;;;;;;;;;5031144;28;20037;-73